Terminal Aerodrome Forecast
Issued by NWS

Home | Current Version | Previous Version | Text Only | Print | Product List | Glossary On
Versions: 1 2 3 4 5 6 7 8 9 10 11 12 13 14
258
FTUS43 KUNR 240319 AAA
TAFGCC
TAF AMD
KGCC 240319Z 2403/2424 05008KT P6SM FEW013 OVC025
     FM240800 08009KT P6SM OVC015
     FM241500 13007KT P6SM OVC025
     FM241700 17007KT P6SM OVC050=

USA.gov is the U.S. government's official web portal to all federal, state and local government web resources and services.